createdAt,value
2022-10-18T00:02:04.505Z,18.03
2022-10-18T00:04:31.220Z,18.03
2022-10-18T00:06:57.776Z,18.03
2022-10-18T00:09:24.870Z,18.03
2022-10-18T00:11:51.726Z,18.03
2022-10-18T00:14:18.285Z,18.03
2022-10-18T00:16:44.923Z,18.05
2022-10-18T00:19:11.768Z,18.04
2022-10-18T00:21:38.367Z,18.03
2022-10-18T00:24:05.241Z,18.02
2022-10-18T00:26:31.951Z,18.03
2022-10-18T00:29:00.905Z,18.03
2022-10-18T00:31:33.083Z,18.02
2022-10-18T00:34:02.033Z,18.02
2022-10-18T00:36:30.397Z,18.00
2022-10-18T00:38:57.449Z,17.99
2022-10-18T00:41:27.844Z,17.97
2022-10-18T00:43:57.126Z,17.94
2022-10-18T00:46:24.956Z,17.93
2022-10-18T00:51:28.159Z,17.91
2022-10-18T00:53:55.165Z,17.90
2022-10-18T00:56:21.840Z,17.92
2022-10-18T00:58:49.160Z,17.92
2022-10-18T01:01:15.989Z,17.92
2022-10-18T01:03:42.729Z,17.89
2022-10-18T01:06:09.646Z,17.87
2022-10-18T01:08:50.695Z,17.85
2022-10-18T01:11:36.041Z,17.83
2022-10-18T01:14:24.137Z,17.82
2022-10-18T01:17:04.383Z,17.84
2022-10-18T01:19:39.951Z,17.81
2022-10-18T01:22:15.866Z,17.79
2022-10-18T01:24:45.456Z,17.79
2022-10-18T01:27:26.162Z,17.80
2022-10-18T01:30:20.239Z,17.81
2022-10-18T01:32:49.241Z,17.82
2022-10-18T01:35:18.749Z,17.83
2022-10-18T01:37:47.182Z,17.84
2022-10-18T01:40:16.603Z,17.87
2022-10-18T01:42:44.924Z,17.86
2022-10-18T01:45:12.356Z,17.84
2022-10-18T01:47:39.228Z,17.83
2022-10-18T01:50:06.788Z,17.79
2022-10-18T01:52:33.429Z,17.77
2022-10-18T01:55:00.709Z,17.75
2022-10-18T01:57:36.512Z,17.74
2022-10-18T02:00:26.167Z,17.74
2022-10-18T02:03:06.427Z,17.75
2022-10-18T02:05:41.898Z,17.76
2022-10-18T02:08:33.847Z,17.77
2022-10-18T02:11:16.208Z,17.76
2022-10-18T02:13:46.605Z,17.75
2022-10-18T02:16:32.196Z,17.76
2022-10-18T02:19:02.437Z,17.80
2022-10-18T02:21:29.743Z,17.78
2022-10-18T02:23:57.940Z,17.81
2022-10-18T02:26:24.822Z,17.82
2022-10-18T02:28:51.704Z,17.82
2022-10-18T02:31:33.406Z,17.85
2022-10-18T02:34:08.801Z,17.83
2022-10-18T02:36:39.113Z,17.84
2022-10-18T02:39:09.392Z,17.82
2022-10-18T02:41:36.175Z,17.82
2022-10-18T02:44:02.684Z,17.84
2022-10-18T02:46:29.203Z,17.84
2022-10-18T02:48:55.728Z,17.84
2022-10-18T02:51:22.244Z,17.82
2022-10-18T02:53:48.764Z,17.81
2022-10-18T02:56:15.295Z,17.82
2022-10-18T02:58:41.786Z,17.82
2022-10-18T03:01:08.335Z,17.80
2022-10-18T03:03:34.985Z,17.80
2022-10-18T03:06:01.776Z,17.79
2022-10-18T03:08:28.310Z,17.81
2022-10-18T03:10:54.849Z,17.83
2022-10-18T03:13:21.393Z,17.84
2022-10-18T03:15:48.733Z,17.84
2022-10-18T03:18:15.671Z,17.83
2022-10-18T03:20:42.174Z,17.85
2022-10-18T03:23:08.894Z,17.84
2022-10-18T03:25:35.403Z,17.87
2022-10-18T03:28:01.964Z,17.88
2022-10-18T03:30:28.542Z,17.90
2022-10-18T03:32:55.128Z,17.91
2022-10-18T03:35:22.362Z,17.91
2022-10-18T03:37:49.355Z,17.92
2022-10-18T03:40:16.017Z,17.92
2022-10-18T03:42:42.536Z,17.93
2022-10-18T03:45:09.447Z,17.93
2022-10-18T03:47:36.005Z,17.93
2022-10-18T03:50:02.551Z,17.92
2022-10-18T03:52:29.230Z,17.92
2022-10-18T03:54:55.983Z,17.91
2022-10-18T03:57:22.511Z,17.92
2022-10-18T03:59:49.190Z,17.94
2022-10-18T04:02:15.793Z,17.94
2022-10-18T04:04:42.322Z,17.93
2022-10-18T04:07:08.828Z,17.93
2022-10-18T04:09:35.326Z,17.93
2022-10-18T04:12:01.897Z,17.92
2022-10-18T04:14:29.027Z,17.93
2022-10-18T04:16:55.572Z,17.94
2022-10-18T04:19:22.086Z,17.92
2022-10-18T04:21:48.609Z,17.92
2022-10-18T04:24:17.053Z,17.90
2022-10-18T04:26:43.645Z,17.88
2022-10-18T04:29:10.329Z,17.87
2022-10-18T04:31:36.875Z,17.88
2022-10-18T04:34:04.677Z,17.89
2022-10-18T04:36:31.544Z,17.87
2022-10-18T04:38:58.056Z,17.84
2022-10-18T04:41:24.664Z,17.84
2022-10-18T04:43:51.163Z,17.81
2022-10-18T04:46:17.724Z,17.81
2022-10-18T04:48:44.258Z,17.80
2022-10-18T04:51:10.753Z,17.79
2022-10-18T04:53:37.334Z,17.78
2022-10-18T04:56:03.976Z,17.78
2022-10-18T04:58:30.506Z,17.78
2022-10-18T05:00:57.026Z,17.77
2022-10-18T05:03:23.577Z,17.77
2022-10-18T05:06:01.268Z,17.75
2022-10-18T05:08:28.207Z,17.72
2022-10-18T05:10:54.742Z,17.70
2022-10-18T05:13:21.532Z,17.68
2022-10-18T05:15:48.353Z,17.67
2022-10-18T05:18:15.051Z,17.65
2022-10-18T05:20:41.623Z,17.65
2022-10-18T05:23:10.805Z,17.67
2022-10-18T05:25:41.891Z,17.67
2022-10-18T05:28:15.600Z,17.64
2022-10-18T05:30:47.728Z,17.63
2022-10-18T05:33:14.287Z,17.64
2022-10-18T05:35:40.838Z,17.65
2022-10-18T05:38:07.441Z,17.66
2022-10-18T05:40:34.301Z,17.67
2022-10-18T05:43:00.817Z,17.71
2022-10-18T05:45:27.334Z,17.72
2022-10-18T05:47:54.746Z,17.74
2022-10-18T05:50:21.329Z,17.75
2022-10-18T05:52:47.833Z,17.76
2022-10-18T05:55:14.401Z,17.79
2022-10-18T05:57:41.075Z,17.78
2022-10-18T06:00:08.283Z,17.78
2022-10-18T06:02:34.822Z,17.79
2022-10-18T06:05:01.403Z,17.81
2022-10-18T06:07:27.940Z,17.83
2022-10-18T06:09:54.448Z,17.85
2022-10-18T06:12:20.960Z,17.87
2022-10-18T06:14:49.364Z,17.89
2022-10-18T06:17:15.961Z,17.90
2022-10-18T06:19:44.401Z,17.94
2022-10-18T06:22:12.039Z,18.00
2022-10-18T06:24:38.830Z,18.04
2022-10-18T06:27:11.332Z,18.10
2022-10-18T06:29:41.372Z,18.14
2022-10-18T06:32:08.381Z,18.18
2022-10-18T06:34:35.108Z,18.23
2022-10-18T06:37:01.943Z,18.25
2022-10-18T06:39:28.602Z,18.29
2022-10-18T06:41:55.087Z,18.33
2022-10-18T06:44:21.669Z,18.35
2022-10-18T06:46:49.172Z,18.41
2022-10-18T06:49:18.982Z,18.43
2022-10-18T06:51:46.214Z,18.48
2022-10-18T06:54:17.845Z,18.51
2022-10-18T06:56:45.256Z,18.54
2022-10-18T06:59:12.064Z,18.59
2022-10-18T07:01:38.653Z,18.66
2022-10-18T07:04:05.258Z,18.72
2022-10-18T07:06:31.771Z,18.79
2022-10-18T07:08:58.434Z,18.86
2022-10-18T07:11:26.606Z,18.91
2022-10-18T07:14:05.033Z,18.96
2022-10-18T07:16:32.895Z,19.00
2022-10-18T07:18:59.549Z,19.08
2022-10-18T07:21:27.015Z,19.15
2022-10-18T07:23:53.951Z,19.22
2022-10-18T07:26:21.576Z,19.27
2022-10-18T07:28:51.376Z,19.33
2022-10-18T07:31:18.302Z,19.38
2022-10-18T07:33:44.809Z,19.46
2022-10-18T07:36:12.296Z,19.52
2022-10-18T07:38:39.121Z,19.57
2022-10-18T07:41:07.038Z,19.64
2022-10-18T07:43:34.997Z,19.74
2022-10-18T07:46:03.510Z,19.83
2022-10-18T07:48:30.225Z,19.90
2022-10-18T07:51:00.765Z,19.97
2022-10-18T07:53:28.420Z,20.05
2022-10-18T07:56:04.701Z,20.13
2022-10-18T07:58:34.248Z,20.18
2022-10-18T08:01:05.290Z,20.24
2022-10-18T08:03:31.924Z,20.30
2022-10-18T08:05:58.615Z,20.39
2022-10-18T08:08:25.987Z,20.45
2022-10-18T08:10:52.704Z,20.52
2022-10-18T08:13:19.617Z,20.57
2022-10-18T08:15:46.308Z,20.63
2022-10-18T08:18:13.037Z,20.68
2022-10-18T08:20:44.533Z,20.74
2022-10-18T08:23:11.157Z,20.80
2022-10-18T08:25:37.686Z,20.85
2022-10-18T08:28:04.375Z,20.95
2022-10-18T08:30:31.128Z,21.03
2022-10-18T08:32:57.678Z,21.11
2022-10-18T08:35:24.253Z,21.17
2022-10-18T08:37:51.367Z,21.26
2022-10-18T08:40:18.118Z,21.36
2022-10-18T08:42:54.751Z,21.42
2022-10-18T08:45:37.562Z,21.46
2022-10-18T08:48:10.447Z,21.46
2022-10-18T08:50:37.869Z,21.42
2022-10-18T08:53:17.715Z,21.40
2022-10-18T08:56:14.515Z,21.40
2022-10-18T08:58:44.947Z,21.40
2022-10-18T09:01:29.848Z,21.40
2022-10-18T09:04:18.195Z,21.38
2022-10-18T09:07:08.285Z,21.40
2022-10-18T09:09:59.968Z,21.39
2022-10-18T09:12:49.798Z,21.44
2022-10-18T09:15:22.517Z,21.50
2022-10-18T09:18:09.774Z,21.44
2022-10-18T09:20:45.486Z,21.41
2022-10-18T09:23:20.113Z,21.44
2022-10-18T09:25:55.536Z,21.43
2022-10-18T09:28:28.084Z,21.41
2022-10-18T09:31:16.738Z,21.41
2022-10-18T09:33:59.182Z,21.34
2022-10-18T09:36:30.579Z,21.34
2022-10-18T09:39:04.130Z,21.34
2022-10-18T09:41:38.345Z,21.41
2022-10-18T09:44:33.637Z,21.46
2022-10-18T09:47:02.628Z,21.53
2022-10-18T09:49:37.028Z,21.55
2022-10-18T09:52:08.346Z,21.56
2022-10-18T09:54:42.656Z,21.58
2022-10-18T09:57:26.913Z,21.59
2022-10-18T09:59:53.528Z,21.61
2022-10-18T10:02:22.447Z,21.61
2022-10-18T10:04:49.852Z,21.65
2022-10-18T10:07:24.435Z,21.63
2022-10-18T10:09:59.666Z,21.63
2022-10-18T10:12:31.861Z,21.65
2022-10-18T10:15:22.601Z,21.64
2022-10-18T10:18:06.039Z,21.62
2022-10-18T10:20:36.494Z,21.63
2022-10-18T10:23:09.141Z,21.63
2022-10-18T10:25:38.460Z,21.62
2022-10-18T10:28:08.160Z,21.63
2022-10-18T10:30:37.217Z,21.67
2022-10-18T10:33:04.941Z,21.65
2022-10-18T10:35:53.030Z,21.65
2022-10-18T10:38:25.763Z,21.69
2022-10-18T10:40:53.115Z,21.71
2022-10-18T10:43:37.155Z,21.72
2022-10-18T10:46:19.160Z,21.73
2022-10-18T10:48:49.767Z,21.75
2022-10-18T10:51:31.152Z,21.81
2022-10-18T10:54:01.542Z,21.82
2022-10-18T10:56:33.560Z,21.79
2022-10-18T10:59:08.178Z,21.75
2022-10-18T11:01:34.803Z,21.72
2022-10-18T11:04:21.345Z,21.73
2022-10-18T11:07:02.946Z,21.78
2022-10-18T11:09:44.797Z,21.88
2022-10-18T11:12:25.637Z,21.99
2022-10-18T11:15:12.014Z,22.04
2022-10-18T11:17:59.548Z,22.05
2022-10-18T11:21:00.462Z,22.08
2022-10-18T11:23:35.087Z,22.12
2022-10-18T11:26:10.712Z,22.16
2022-10-18T11:28:55.436Z,22.20
2022-10-18T11:31:27.092Z,22.26
2022-10-18T11:34:15.082Z,22.29
2022-10-18T11:40:20.459Z,22.41
2022-10-18T11:42:56.109Z,22.47
2022-10-18T11:45:25.932Z,22.52
2022-10-18T11:48:26.629Z,22.57
2022-10-18T11:51:10.952Z,22.61
2022-10-18T11:53:58.481Z,22.65
2022-10-18T11:56:28.951Z,22.66
2022-10-18T11:59:19.763Z,22.71
2022-10-18T12:02:10.755Z,22.71
2022-10-18T12:04:53.053Z,22.74
2022-10-18T12:07:56.396Z,22.75
2022-10-18T12:10:32.898Z,22.75
2022-10-18T12:13:18.494Z,22.76
2022-10-18T12:15:45.362Z,22.76
2022-10-18T12:18:16.184Z,22.76
2022-10-18T12:20:54.406Z,22.76
2022-10-18T12:23:29.995Z,22.77
2022-10-18T12:26:01.244Z,22.77
2022-10-18T12:28:49.167Z,22.76
2022-10-18T12:31:21.837Z,22.73
2022-10-18T12:34:01.953Z,22.72
2022-10-18T12:36:55.929Z,22.73
2022-10-18T12:39:38.872Z,22.71
2022-10-18T12:42:23.395Z,22.71
2022-10-18T12:44:50.265Z,22.71
2022-10-18T12:47:26.281Z,22.69
2022-10-18T12:50:06.233Z,22.70
2022-10-18T12:52:37.161Z,22.69
2022-10-18T12:55:16.753Z,22.71
2022-10-18T12:57:53.256Z,22.69
2022-10-18T13:00:32.088Z,22.67
2022-10-18T13:03:13.622Z,22.67
2022-10-18T13:05:54.921Z,22.68
2022-10-18T13:08:28.293Z,22.70
2022-10-18T13:11:00.559Z,22.74
2022-10-18T13:14:06.601Z,22.75
2022-10-18T13:16:52.897Z,22.78
2022-10-18T13:19:28.355Z,22.77
2022-10-18T13:22:01.032Z,22.74
2022-10-18T13:24:40.306Z,22.67
2022-10-18T13:27:35.621Z,22.60
2022-10-18T13:30:05.880Z,22.56
2022-10-18T13:33:21.863Z,22.53
2022-10-18T13:35:55.873Z,22.49
2022-10-18T13:39:04.381Z,22.49
2022-10-18T13:41:35.564Z,22.50
2022-10-18T13:44:02.300Z,22.52
2022-10-18T13:46:34.756Z,22.53
2022-10-18T13:49:22.441Z,22.55
2022-10-18T13:52:07.663Z,22.52
2022-10-18T13:54:40.351Z,22.50
2022-10-18T13:57:18.862Z,22.49
2022-10-18T14:00:02.767Z,22.43
2022-10-18T14:02:50.916Z,22.39
2022-10-18T14:05:42.687Z,22.37
2022-10-18T14:08:25.904Z,22.35
2022-10-18T14:11:03.267Z,22.34
2022-10-18T14:13:55.871Z,22.33
2022-10-18T14:16:39.125Z,22.34
2022-10-18T14:19:17.047Z,22.34
2022-10-18T14:21:53.169Z,22.32
2022-10-18T14:24:22.751Z,22.31
2022-10-18T14:27:09.599Z,22.29
2022-10-18T14:29:36.305Z,22.27
2022-10-18T14:32:03.105Z,22.25
2022-10-18T14:34:29.973Z,22.25
2022-10-18T14:36:56.634Z,22.23
2022-10-18T14:39:28.139Z,22.23
2022-10-18T14:41:57.058Z,22.18
2022-10-18T14:44:28.966Z,22.19
2022-10-18T14:46:55.432Z,22.17
2022-10-18T14:49:22.275Z,22.16
2022-10-18T14:51:51.480Z,22.14
2022-10-18T14:54:20.519Z,22.10
2022-10-18T14:56:47.678Z,22.07
2022-10-18T14:59:28.170Z,22.05
2022-10-18T15:02:12.606Z,22.01
2022-10-18T15:04:39.133Z,21.97
2022-10-18T15:07:07.738Z,21.93
2022-10-18T15:09:35.637Z,21.89
2022-10-18T15:12:06.582Z,21.87
2022-10-18T15:14:34.289Z,21.86
2022-10-18T15:17:12.232Z,21.85
2022-10-18T15:19:43.082Z,21.81
2022-10-18T15:25:05.649Z,21.77
2022-10-18T15:27:35.767Z,21.75
2022-10-18T15:30:17.640Z,21.74
2022-10-18T15:32:49.712Z,21.70
2022-10-18T15:35:23.450Z,21.69
2022-10-18T15:37:52.809Z,21.67
2022-10-18T15:40:40.053Z,21.63
2022-10-18T15:43:26.497Z,21.60
2022-10-18T15:45:57.721Z,21.57
2022-10-18T15:48:35.884Z,21.54
2022-10-18T15:51:04.789Z,21.51
2022-10-18T15:53:32.944Z,21.46
2022-10-18T15:56:32.587Z,21.42
2022-10-18T15:59:03.469Z,21.37
2022-10-18T16:01:42.249Z,21.37
2022-10-18T16:04:18.182Z,21.36
2022-10-18T16:06:44.984Z,21.34
2022-10-18T16:09:17.623Z,21.32
2022-10-18T16:11:44.453Z,21.25
2022-10-18T16:14:11.012Z,21.23
2022-10-18T16:16:38.759Z,21.21
2022-10-18T16:19:05.290Z,21.18
2022-10-18T16:21:37.251Z,21.14
2022-10-18T16:24:04.143Z,21.11
2022-10-18T16:26:30.732Z,21.09
2022-10-18T16:28:58.071Z,21.10
2022-10-18T16:31:29.916Z,21.13
2022-10-18T16:33:57.185Z,21.13
2022-10-18T16:36:26.201Z,21.14
2022-10-18T16:38:54.942Z,21.15
2022-10-18T16:41:22.178Z,21.15
2022-10-18T16:43:49.833Z,21.14
2022-10-18T16:46:17.892Z,21.14
2022-10-18T16:48:44.762Z,21.13
2022-10-18T16:51:11.777Z,21.14
2022-10-18T16:53:38.514Z,21.13
2022-10-18T16:56:07.302Z,21.14
2022-10-18T16:58:33.876Z,21.12
2022-10-18T17:01:01.983Z,21.12
2022-10-18T17:03:30.732Z,21.13
2022-10-18T17:05:57.278Z,21.12
2022-10-18T17:08:26.678Z,21.12
2022-10-18T17:10:55.351Z,21.11
2022-10-18T17:13:23.180Z,21.10
2022-10-18T17:15:50.435Z,21.10
2022-10-18T17:18:21.872Z,21.10
2022-10-18T17:20:49.419Z,21.10
2022-10-18T17:23:16.384Z,21.09
2022-10-18T17:25:57.836Z,21.09
2022-10-18T17:28:33.053Z,21.09
2022-10-18T17:30:59.641Z,21.08
2022-10-18T17:33:26.333Z,21.08
2022-10-18T17:35:52.847Z,21.08
2022-10-18T17:38:19.352Z,21.09
2022-10-18T17:40:45.878Z,21.09
2022-10-18T17:43:13.918Z,21.10
2022-10-18T17:45:53.615Z,21.10
2022-10-18T17:48:20.145Z,21.08
2022-10-18T17:50:46.709Z,21.08
2022-10-18T17:53:13.345Z,21.08
2022-10-18T17:55:40.302Z,21.08
2022-10-18T17:58:06.954Z,21.08
2022-10-18T18:00:33.551Z,21.09
2022-10-18T18:03:00.817Z,21.09
2022-10-18T18:05:32.025Z,21.09
2022-10-18T18:08:02.877Z,21.10
2022-10-18T18:10:32.811Z,21.09
2022-10-18T18:12:59.357Z,21.10
2022-10-18T18:15:25.953Z,21.10
2022-10-18T18:17:57.212Z,21.10
2022-10-18T18:20:24.776Z,21.14
2022-10-18T18:22:51.830Z,21.13
2022-10-18T18:25:18.492Z,21.09
2022-10-18T18:27:45.061Z,21.05
2022-10-18T18:30:11.807Z,21.00
2022-10-18T18:32:38.437Z,20.98
2022-10-18T18:35:05.918Z,20.99
2022-10-18T18:37:32.492Z,20.99
2022-10-18T18:39:59.080Z,20.99
2022-10-18T18:42:25.585Z,20.99
2022-10-18T18:44:52.097Z,20.99
2022-10-18T18:47:21.696Z,21.00
2022-10-18T18:49:48.747Z,21.02
2022-10-18T18:52:15.391Z,21.01
2022-10-18T18:54:41.926Z,21.02
2022-10-18T18:57:08.591Z,21.00
2022-10-18T18:59:35.201Z,20.98
2022-10-18T19:02:01.821Z,20.98
2022-10-18T19:04:29.152Z,20.98
2022-10-18T19:06:55.823Z,20.99
2022-10-18T19:09:22.974Z,20.98
2022-10-18T19:11:54.142Z,20.98
2022-10-18T19:16:54.810Z,20.95
2022-10-18T19:19:23.207Z,20.92
2022-10-18T19:22:01.146Z,20.90
2022-10-18T19:24:30.197Z,20.91
2022-10-18T19:26:58.935Z,20.89
2022-10-18T19:29:27.925Z,20.87
2022-10-18T19:31:57.960Z,20.84
2022-10-18T19:34:26.564Z,20.78
2022-10-18T19:36:53.202Z,20.75
2022-10-18T19:39:25.513Z,20.74
2022-10-18T19:41:55.339Z,20.72
2022-10-18T19:44:23.379Z,20.74
2022-10-18T19:46:50.566Z,20.74
2022-10-18T19:49:17.684Z,20.77
2022-10-18T19:51:44.520Z,20.80
2022-10-18T19:54:12.087Z,20.81
2022-10-18T19:56:39.256Z,20.82
2022-10-18T19:59:05.878Z,20.83
2022-10-18T20:01:32.568Z,20.83
2022-10-18T20:03:59.806Z,20.84
2022-10-18T20:06:26.511Z,20.84
2022-10-18T20:08:53.147Z,20.85
2022-10-18T20:11:21.950Z,20.85
2022-10-18T20:13:48.693Z,20.84
2022-10-18T20:16:17.073Z,20.84
2022-10-18T20:18:43.985Z,20.84
2022-10-18T20:21:12.693Z,20.85
2022-10-18T20:23:40.745Z,20.87
2022-10-18T20:26:10.388Z,20.85
2022-10-18T20:28:37.797Z,20.84
2022-10-18T20:31:10.067Z,20.81
2022-10-18T20:33:36.643Z,20.81
2022-10-18T20:36:07.699Z,20.83
2022-10-18T20:38:35.828Z,20.84
2022-10-18T20:41:08.831Z,20.86
2022-10-18T20:43:35.879Z,20.86
2022-10-18T20:46:03.020Z,20.86
2022-10-18T20:48:30.683Z,20.82
2022-10-18T20:50:57.585Z,20.80
2022-10-18T20:53:24.154Z,20.77
2022-10-18T20:55:50.752Z,20.76
2022-10-18T20:58:17.680Z,20.77
2022-10-18T21:00:44.196Z,20.76
2022-10-18T21:05:42.181Z,20.75
2022-10-18T21:08:08.706Z,20.75
2022-10-18T21:10:35.317Z,20.75
2022-10-18T21:13:01.923Z,20.72
2022-10-18T21:15:28.561Z,20.70
2022-10-18T21:17:55.148Z,20.69
2022-10-18T21:20:21.732Z,20.68
2022-10-18T21:22:48.405Z,20.66
2022-10-18T21:25:14.908Z,20.67
2022-10-18T21:27:41.677Z,20.67
2022-10-18T21:30:08.782Z,20.67
2022-10-18T21:32:35.571Z,20.68
2022-10-18T21:35:02.477Z,20.66
2022-10-18T21:37:29.025Z,20.65
2022-10-18T21:39:55.626Z,20.63
2022-10-18T21:42:22.148Z,20.62
2022-10-18T21:44:48.669Z,20.61
2022-10-18T21:47:15.567Z,20.61
2022-10-18T21:49:42.072Z,20.61
2022-10-18T21:52:08.580Z,20.60
2022-10-18T21:54:35.092Z,20.60
2022-10-18T21:57:01.587Z,20.59
2022-10-18T21:59:28.150Z,20.58
2022-10-18T22:01:54.888Z,20.54
2022-10-18T22:04:23.830Z,20.56
2022-10-18T22:06:50.853Z,20.58
2022-10-18T22:09:17.443Z,20.57
2022-10-18T22:11:47.387Z,20.55
2022-10-18T22:14:14.138Z,20.56
2022-10-18T22:16:40.662Z,20.56
2022-10-18T22:19:07.902Z,20.53
2022-10-18T22:21:34.895Z,20.56
2022-10-18T22:24:05.030Z,20.58
2022-10-18T22:26:37.089Z,20.59
2022-10-18T22:29:08.623Z,20.60
2022-10-18T22:31:36.019Z,20.59
2022-10-18T22:34:05.553Z,20.61
2022-10-18T22:36:32.852Z,20.63
2022-10-18T22:38:59.526Z,20.65
2022-10-18T22:41:26.393Z,20.66
2022-10-18T22:43:53.531Z,20.67
2022-10-18T22:46:20.847Z,20.67
2022-10-18T22:48:47.886Z,20.65
2022-10-18T22:51:14.876Z,20.65
2022-10-18T22:53:41.480Z,20.67
2022-10-18T22:56:10.518Z,20.68
2022-10-18T22:58:37.053Z,20.68
2022-10-18T23:01:08.780Z,20.67
2022-10-18T23:03:35.721Z,20.66
2022-10-18T23:06:02.448Z,20.67
2022-10-18T23:08:29.385Z,20.67
2022-10-18T23:10:58.782Z,20.67
2022-10-18T23:13:26.853Z,20.65
2022-10-18T23:15:53.573Z,20.65
2022-10-18T23:18:20.215Z,20.64
2022-10-18T23:20:46.775Z,20.66
2022-10-18T23:23:13.513Z,20.65
2022-10-18T23:25:40.272Z,20.65
2022-10-18T23:28:07.121Z,20.63
2022-10-18T23:30:33.972Z,20.62
2022-10-18T23:33:00.556Z,20.62
2022-10-18T23:35:27.113Z,20.62
2022-10-18T23:37:53.676Z,20.62
2022-10-18T23:40:20.219Z,20.60
2022-10-18T23:42:46.778Z,20.59
2022-10-18T23:45:13.294Z,20.58
2022-10-18T23:47:39.815Z,20.56
2022-10-18T23:50:06.661Z,20.55
2022-10-18T23:52:33.199Z,20.53
2022-10-18T23:54:59.702Z,20.54
2022-10-18T23:57:26.213Z,20.50
2022-10-18T23:59:52.713Z,20.45
